メインページ
METAR-TAF:

METAR-TAF

空港 :

Community_Airport

Owosso, ミシガン州, アメリカ合衆国

緯度: 42-59-34N, 経度: 084-08-20W, 海抜: 224m

現時点の気象観測

当レポートは21分前の04:36(UTC)に作成
無風
気温 23°C
湿度 73%
気圧 1017 hPa
視程: 16.1km
晴天

METAR: KRNP 270436Z AUTO 00000KT 10SM CLR 23/18 A3002 RMK AO2 T02300182

時間: 00:57 (04:57 UTC)


TAF: 見つかりません

4,000以上の空港の気象観測と天気予報(METAR報とTAF報)

利用可能な観測所は地図上に黄色い丸と赤い丸で示す。

丸の上にカーソルを重ねると観測所名を参照できる。

次にクリックすると気象観測と天気予報を参照できる。

マップの切り替え:黒色「×」印の緑ボタンをクリックして拡大、「-」印の緑ボタンをクリックして縮小、緑色の三角印をクリックして隣りの地図に切り替え


METAR-TAF: